Time;durP1;ratioP1;P1;durP2;ratioP2;P2;SDS_P1;SDS_P2;PMS_P1;PMS_P2;Temp;Humidity;BMP_temperature;BMP_pressure;BME280_temperature;BME280_humidity;BME280_pressure;Samples;Min_cycle;Max_cycle;Signal;HPM_P1;HPM_P2
2022/11/08 00:01:51;;;;;;;13.38;5.00;;;;;;;;;;5085109;28;20082;-75
2022/11/08 00:04:17;;;;;;;13.73;5.03;;;;;;;;;;5088735;28;20042;-74
2022/11/08 00:14:58;;;;;;;16.90;6.47;;;;;;;;;;5085051;28;20106;-74
2022/11/08 00:17:25;;;;;;;13.90;5.50;;;;;;;;;;5087363;28;20016;-74
2022/11/08 00:19:52;;;;;;;15.45;5.97;;;;;;;;;;5081090;28;20515;-74
2022/11/08 00:22:18;;;;;;;11.75;5.63;;;;;;;;;;5083610;28;20462;-74
2022/11/08 00:24:44;;;;;;;13.35;4.95;;;;;;;;;;5083468;28;20040;-74
2022/11/08 00:27:17;;;;;;;10.77;4.90;;;;;;;;;;5083225;28;20024;-75
2022/11/08 00:29:43;;;;;;;14.93;5.80;;;;;;;;;;5080250;28;20043;-74
2022/11/08 00:32:11;;;;;;;13.85;5.72;;;;;;;;;;5080493;28;20028;-75
2022/11/08 00:34:37;;;;;;;13.27;4.68;;;;;;;;;;5075110;28;20051;-74
2022/11/08 00:37:03;;;;;;;12.63;4.50;;;;;;;;;;5081373;28;20028;-74
2022/11/08 00:39:30;;;;;;;11.30;5.70;;;;;;;;;;5078435;28;20032;-75
2022/11/08 00:41:56;;;;;;;20.20;8.75;;;;;;;;;;5088764;28;20028;-74
2022/11/08 00:44:22;;;;;;;16.02;7.38;;;;;;;;;;5079695;28;20046;-74
2022/11/08 00:46:48;;;;;;;14.27;6.10;;;;;;;;;;5077431;28;20568;-74
2022/11/08 00:49:14;;;;;;;16.00;6.25;;;;;;;;;;5079639;28;20127;-74
2022/11/08 00:51:40;;;;;;;11.25;4.93;;;;;;;;;;5087555;28;20090;-74
2022/11/08 00:54:06;;;;;;;10.35;4.78;;;;;;;;;;5083617;28;20469;-74
2022/11/08 00:56:33;;;;;;;9.80;4.65;;;;;;;;;;5083428;28;20032;-75
2022/11/08 00:58:59;;;;;;;15.40;4.55;;;;;;;;;;5087918;28;20032;-74
2022/11/08 01:01:26;;;;;;;11.50;4.13;;;;;;;;;;5053068;28;20029;-75
2022/11/08 01:03:52;;;;;;;10.57;4.38;;;;;;;;;;5072388;28;20040;-75
2022/11/08 01:06:19;;;;;;;12.82;4.80;;;;;;;;;;5058434;28;20127;-75
2022/11/08 01:08:45;;;;;;;8.73;4.32;;;;;;;;;;5080998;28;20536;-74
2022/11/08 01:11:15;;;;;;;11.45;3.88;;;;;;;;;;5086309;28;20855;-74
2022/11/08 01:13:41;;;;;;;10.80;4.53;;;;;;;;;;5071500;28;20123;-75
2022/11/08 01:16:09;;;;;;;10.23;3.42;;;;;;;;;;5080218;28;20115;-74
2022/11/08 01:18:35;;;;;;;9.00;3.80;;;;;;;;;;5078992;28;20032;-74
2022/11/08 01:21:01;;;;;;;9.43;3.67;;;;;;;;;;5087489;28;20032;-75
2022/11/08 01:23:28;;;;;;;11.52;3.88;;;;;;;;;;5079047;28;20036;-75
2022/11/08 01:25:53;;;;;;;8.80;3.53;;;;;;;;;;5092361;28;20069;-75
2022/11/08 01:28:19;;;;;;;10.10;4.20;;;;;;;;;;5082434;28;20037;-75
2022/11/08 01:30:46;;;;;;;15.70;7.75;;;;;;;;;;5091732;28;20036;-75
2022/11/08 01:33:12;;;;;;;14.25;6.18;;;;;;;;;;5091993;28;20514;-77
2022/11/08 01:35:39;;;;;;;15.48;5.75;;;;;;;;;;5079891;28;20179;-75
2022/11/08 01:38:05;;;;;;;10.52;4.45;;;;;;;;;;5090049;28;20043;-75
2022/11/08 01:40:31;;;;;;;12.20;4.70;;;;;;;;;;5084288;28;20112;-74
2022/11/08 01:42:57;;;;;;;13.23;4.43;;;;;;;;;;5088870;28;20039;-75
2022/11/08 01:45:42;;;;;;;9.48;4.03;;;;;;;;;;5078683;28;20048;-74
2022/11/08 01:48:08;;;;;;;10.75;3.97;;;;;;;;;;5074776;28;20085;-77
2022/11/08 01:50:34;;;;;;;8.82;3.97;;;;;;;;;;5084469;28;20082;-77
2022/11/08 01:53:00;;;;;;;9.07;3.40;;;;;;;;;;5079911;28;20032;-77
2022/11/08 01:55:34;;;;;;;8.88;3.42;;;;;;;;;;5083049;28;20520;-76
2022/11/08 01:58:00;;;;;;;9.02;4.07;;;;;;;;;;5080726;28;20028;-76
2022/11/08 02:00:26;;;;;;;8.85;3.67;;;;;;;;;;5082632;28;20127;-77
2022/11/08 02:03:03;;;;;;;9.25;3.75;;;;;;;;;;5080141;28;20061;-76
2022/11/08 02:05:30;;;;;;;10.95;3.80;;;;;;;;;;5090197;28;20167;-77
2022/11/08 02:08:05;;;;;;;9.55;4.25;;;;;;;;;;5087372;28;20043;-76
2022/11/08 02:10:35;;;;;;;10.10;4.22;;;;;;;;;;5092315;28;20109;-76
2022/11/08 02:13:02;;;;;;;10.30;4.70;;;;;;;;;;5081685;28;20405;-77
2022/11/08 02:15:28;;;;;;;11.82;5.00;;;;;;;;;;5092111;28;20036;-76
2022/11/08 02:17:54;;;;;;;12.18;5.30;;;;;;;;;;5091334;28;20035;-76
2022/11/08 02:20:20;;;;;;;11.27;4.72;;;;;;;;;;5058308;28;20033;-77
2022/11/08 02:23:06;;;;;;;13.90;4.65;;;;;;;;;;5086795;28;20024;-77
2022/11/08 02:25:32;;;;;;;11.82;5.13;;;;;;;;;;5038356;28;20048;-77
2022/11/08 02:27:58;;;;;;;13.40;6.57;;;;;;;;;;5060499;28;20135;-77
2022/11/08 02:30:24;;;;;;;16.15;7.90;;;;;;;;;;5068794;28;20040;-76
2022/11/08 02:32:50;;;;;;;14.60;6.50;;;;;;;;;;5089304;28;20085;-77
2022/11/08 02:35:18;;;;;;;14.95;6.03;;;;;;;;;;5087134;28;20127;-77
2022/11/08 02:37:45;;;;;;;12.32;6.13;;;;;;;;;;5080969;28;20372;-77
2022/11/08 02:40:11;;;;;;;11.50;6.10;;;;;;;;;;5082429;28;20108;-77
2022/11/08 02:42:37;;;;;;;11.57;5.57;;;;;;;;;;5075394;28;20020;-76
2022/11/08 02:45:07;;;;;;;13.25;5.60;;;;;;;;;;5090399;28;20044;-77
2022/11/08 02:47:33;;;;;;;13.35;5.72;;;;;;;;;;5072238;28;20428;-76
2022/11/08 02:49:59;;;;;;;13.90;6.43;;;;;;;;;;5056799;28;20123;-77
2022/11/08 02:52:25;;;;;;;13.02;5.78;;;;;;;;;;5080497;28;20359;-76
2022/11/08 02:54:51;;;;;;;15.57;6.18;;;;;;;;;;5076523;28;20055;-77
2022/11/08 02:57:17;;;;;;;12.93;5.97;;;;;;;;;;5067927;28;20123;-77
2022/11/08 02:59:43;;;;;;;11.70;5.07;;;;;;;;;;5076015;28;20052;-76
2022/11/08 03:02:09;;;;;;;11.13;5.30;;;;;;;;;;5090782;28;20068;-76
2022/11/08 03:04:35;;;;;;;10.98;4.78;;;;;;;;;;5076584;28;20037;-77
2022/11/08 03:07:01;;;;;;;13.32;4.20;;;;;;;;;;5054927;28;20493;-77
2022/11/08 03:09:27;;;;;;;11.00;5.38;;;;;;;;;;5055116;28;20037;-76
2022/11/08 03:11:53;;;;;;;11.30;4.60;;;;;;;;;;5068088;28;20025;-77
2022/11/08 03:14:19;;;;;;;11.00;4.15;;;;;;;;;;5059563;28;20449;-76
2022/11/08 03:16:45;;;;;;;12.15;5.30;;;;;;;;;;5052467;28;20028;-77
2022/11/08 03:19:11;;;;;;;11.73;5.40;;;;;;;;;;5066333;28;20059;-76
2022/11/08 03:21:37;;;;;;;11.00;5.25;;;;;;;;;;5060100;28;20447;-77
2022/11/08 03:24:04;;;;;;;13.48;6.68;;;;;;;;;;5065112;28;20069;-76
2022/11/08 03:26:31;;;;;;;12.77;6.78;;;;;;;;;;5051668;28;20028;-77
2022/11/08 03:28:57;;;;;;;16.55;7.57;;;;;;;;;;5065697;28;20086;-77
2022/11/08 03:31:23;;;;;;;13.68;7.30;;;;;;;;;;5057149;28;20032;-76
2022/11/08 03:33:49;;;;;;;18.70;7.63;;;;;;;;;;5067505;28;20078;-77
2022/11/08 03:36:15;;;;;;;13.10;7.78;;;;;;;;;;5061385;28;20135;-77
2022/11/08 03:38:41;;;;;;;14.95;7.65;;;;;;;;;;5061738;28;20021;-76
2022/11/08 03:41:07;;;;;;;15.88;7.22;;;;;;;;;;5064383;28;20033;-77
2022/11/08 03:43:33;;;;;;;14.00;8.85;;;;;;;;;;5057167;28;20021;-76
2022/11/08 03:45:59;;;;;;;14.30;7.68;;;;;;;;;;5057297;28;20113;-76
2022/11/08 03:48:25;;;;;;;16.00;6.60;;;;;;;;;;5060763;28;20505;-77
2022/11/08 03:50:51;;;;;;;14.07;7.13;;;;;;;;;;5061361;28;20037;-77
2022/11/08 03:53:17;;;;;;;16.17;7.38;;;;;;;;;;5060232;28;20048;-76
2022/11/08 03:55:44;;;;;;;13.30;7.28;;;;;;;;;;5054544;28;20040;-76
2022/11/08 03:58:10;;;;;;;16.13;7.80;;;;;;;;;;5059791;28;20035;-76
2022/11/08 04:00:36;;;;;;;16.20;6.80;;;;;;;;;;5064811;28;20705;-77
2022/11/08 04:03:03;;;;;;;12.85;6.90;;;;;;;;;;5066878;28;20032;-76
2022/11/08 04:05:31;;;;;;;14.18;6.78;;;;;;;;;;5062225;28;20130;-77
2022/11/08 04:07:57;;;;;;;10.43;6.35;;;;;;;;;;5068953;28;20043;-77
2022/11/08 04:10:23;;;;;;;12.23;6.18;;;;;;;;;;5059420;28;20446;-76
2022/11/08 04:15:34;;;;;;;14.55;5.68;;;;;;;;;;5052487;28;20063;-76
2022/11/08 04:23:32;;;;;;;20.30;9.07;;;;;;;;;;5061548;28;20044;-77
2022/11/08 04:26:00;;;;;;;14.00;6.35;;;;;;;;;;5060502;28;20025;-77
2022/11/08 04:28:26;;;;;;;51.78;23.77;;;;;;;;;;5060492;28;20025;-76
2022/11/08 04:30:53;;;;;;;73.43;37.70;;;;;;;;;;5054913;28;20028;-77
2022/11/08 04:33:19;;;;;;;160.43;82.82;;;;;;;;;;5062330;28;20462;-77
2022/11/08 04:35:45;;;;;;;70.13;39.83;;;;;;;;;;5057475;28;20539;-77
2022/11/08 04:38:11;;;;;;;69.35;38.15;;;;;;;;;;5059611;28;20067;-77
2022/11/08 04:40:37;;;;;;;48.58;26.00;;;;;;;;;;5069447;28;20111;-76
2022/11/08 04:43:03;;;;;;;32.17;16.88;;;;;;;;;;5063332;28;20466;-76
2022/11/08 04:45:29;;;;;;;22.77;12.18;;;;;;;;;;5064348;28;20040;-76
2022/11/08 04:47:55;;;;;;;16.52;8.98;;;;;;;;;;5062975;28;20043;-76
2022/11/08 04:50:21;;;;;;;15.88;7.78;;;;;;;;;;5054401;28;20036;-76
2022/11/08 04:52:51;;;;;;;15.20;8.02;;;;;;;;;;5063915;28;20036;-76
2022/11/08 04:55:18;;;;;;;12.98;7.47;;;;;;;;;;5057020;28;20477;-76
2022/11/08 04:57:44;;;;;;;12.25;5.97;;;;;;;;;;5065717;28;20031;-77
2022/11/08 05:00:10;;;;;;;13.23;6.45;;;;;;;;;;5050567;28;20033;-77
2022/11/08 05:02:36;;;;;;;26.30;12.55;;;;;;;;;;5062866;28;20032;-76
2022/11/08 05:05:02;;;;;;;21.73;13.02;;;;;;;;;;5067076;28;20486;-77
2022/11/08 05:07:28;;;;;;;23.25;11.82;;;;;;;;;;5063415;28;20051;-76
2022/11/08 05:09:55;;;;;;;21.65;14.02;;;;;;;;;;5064697;28;20047;-77
2022/11/08 05:12:21;;;;;;;23.77;14.52;;;;;;;;;;5053328;28;20482;-77
2022/11/08 05:14:47;;;;;;;22.50;14.15;;;;;;;;;;5067362;28;20102;-77
2022/11/08 05:17:13;;;;;;;25.30;15.73;;;;;;;;;;5065466;28;20561;-76
2022/11/08 05:25:08;;;;;;;22.17;12.68;;;;;;;;;;5059229;28;20044;-77
2022/11/08 05:27:34;;;;;;;21.15;10.85;;;;;;;;;;5058238;28;20028;-77
2022/11/08 05:30:00;;;;;;;26.88;12.43;;;;;;;;;;5057294;28;22212;-76
2022/11/08 05:32:26;;;;;;;20.55;12.77;;;;;;;;;;5067163;28;20040;-76
2022/11/08 05:34:52;;;;;;;19.35;12.57;;;;;;;;;;5062181;28;20037;-77
2022/11/08 05:37:18;;;;;;;25.65;16.52;;;;;;;;;;5070416;28;20032;-77
2022/11/08 05:39:44;;;;;;;19.95;11.80;;;;;;;;;;5056660;28;20028;-77
2022/11/08 05:42:10;;;;;;;23.67;14.10;;;;;;;;;;5062964;28;20033;-77
2022/11/08 05:44:36;;;;;;;22.08;14.10;;;;;;;;;;5056945;28;20396;-77
2022/11/08 05:47:02;;;;;;;21.42;14.57;;;;;;;;;;5056739;28;20028;-77
2022/11/08 05:49:28;;;;;;;22.17;14.00;;;;;;;;;;5059101;28;20116;-76
2022/11/08 05:51:54;;;;;;;29.42;15.93;;;;;;;;;;5057049;28;20470;-76
2022/11/08 05:54:20;;;;;;;25.98;16.45;;;;;;;;;;5065147;28;20036;-76
2022/11/08 05:56:46;;;;;;;24.65;15.63;;;;;;;;;;5060167;28;20029;-76
2022/11/08 05:59:12;;;;;;;32.72;21.48;;;;;;;;;;5048042;28;20060;-76
2022/11/08 06:01:38;;;;;;;44.38;29.63;;;;;;;;;;5059642;28;20674;-76
2022/11/08 06:04:04;;;;;;;47.17;29.63;;;;;;;;;;5064555;28;20047;-77
2022/11/08 06:06:30;;;;;;;40.20;28.23;;;;;;;;;;5062715;28;20055;-76
2022/11/08 06:08:56;;;;;;;39.53;25.77;;;;;;;;;;5060863;28;20358;-77
2022/11/08 06:11:24;;;;;;;40.67;28.52;;;;;;;;;;5058180;28;20032;-76
2022/11/08 06:13:50;;;;;;;40.03;28.30;;;;;;;;;;5066707;28;20532;-76
2022/11/08 06:16:17;;;;;;;40.92;29.90;;;;;;;;;;5062660;28;20029;-76
2022/11/08 06:18:43;;;;;;;51.33;37.47;;;;;;;;;;5072861;28;20385;-76
2022/11/08 06:21:13;;;;;;;58.38;35.78;;;;;;;;;;5069542;28;20527;-76
2022/11/08 06:23:40;;;;;;;47.35;30.45;;;;;;;;;;5067271;28;20033;-76
2022/11/08 06:26:06;;;;;;;45.88;30.55;;;;;;;;;;5065824;28;20033;-77
2022/11/08 06:28:32;;;;;;;50.35;35.10;;;;;;;;;;5069190;28;20057;-76
2022/11/08 06:30:58;;;;;;;49.60;32.35;;;;;;;;;;5067107;28;20044;-77
2022/11/08 06:33:24;;;;;;;45.17;30.40;;;;;;;;;;5061104;28;20029;-76
2022/11/08 06:35:50;;;;;;;57.55;40.50;;;;;;;;;;5060738;28;20024;-77
2022/11/08 06:38:16;;;;;;;50.38;31.27;;;;;;;;;;5055744;28;20029;-77
2022/11/08 06:40:43;;;;;;;52.83;35.17;;;;;;;;;;5067007;28;20039;-77
2022/11/08 06:43:10;;;;;;;44.45;30.73;;;;;;;;;;5061279;28;20036;-76
2022/11/08 06:45:36;;;;;;;55.70;35.70;;;;;;;;;;5071499;28;20044;-76
2022/11/08 06:48:03;;;;;;;50.40;33.88;;;;;;;;;;5063540;28;20029;-77
2022/11/08 06:50:30;;;;;;;45.72;33.83;;;;;;;;;;5059791;28;20041;-77
2022/11/08 06:53:00;;;;;;;46.28;29.83;;;;;;;;;;5062747;28;20068;-77
2022/11/08 06:55:26;;;;;;;47.85;29.55;;;;;;;;;;5072728;28;20048;-76
2022/11/08 06:57:52;;;;;;;47.63;31.65;;;;;;;;;;5063886;28;20028;-76
2022/11/08 07:00:19;;;;;;;51.25;34.75;;;;;;;;;;5065602;28;20036;-76
2022/11/08 07:02:45;;;;;;;38.80;29.90;;;;;;;;;;5066116;28;20021;-77
2022/11/08 07:05:11;;;;;;;45.95;32.55;;;;;;;;;;5071854;28;20056;-76
2022/11/08 07:07:37;;;;;;;54.40;32.95;;;;;;;;;;5053824;28;20043;-77
2022/11/08 07:10:04;;;;;;;45.58;29.40;;;;;;;;;;5068924;28;20036;-76
2022/11/08 07:12:30;;;;;;;42.67;27.55;;;;;;;;;;5064321;28;20420;-76
2022/11/08 07:14:56;;;;;;;41.13;28.30;;;;;;;;;;5064329;28;20534;-77
2022/11/08 07:17:22;;;;;;;44.95;27.05;;;;;;;;;;5070758;28;20105;-77
2022/11/08 07:19:48;;;;;;;29.65;18.88;;;;;;;;;;5066320;28;20060;-77
2022/11/08 07:22:14;;;;;;;37.30;27.65;;;;;;;;;;5058101;28;20059;-77
2022/11/08 07:24:40;;;;;;;41.60;25.52;;;;;;;;;;5054760;28;20078;-77
2022/11/08 07:27:06;;;;;;;36.45;22.67;;;;;;;;;;5062102;28;20029;-77
2022/11/08 07:29:32;;;;;;;32.50;18.10;;;;;;;;;;5055912;28;20060;-77
2022/11/08 07:31:58;;;;;;;28.33;18.65;;;;;;;;;;5068375;28;20028;-77
2022/11/08 07:34:24;;;;;;;30.00;18.40;;;;;;;;;;5067827;28;20040;-77
2022/11/08 07:36:50;;;;;;;30.92;15.60;;;;;;;;;;5060085;28;20111;-76
2022/11/08 07:39:16;;;;;;;29.65;13.73;;;;;;;;;;5059943;28;20029;-76
2022/11/08 07:41:43;;;;;;;20.17;10.57;;;;;;;;;;5056381;28;20102;-77
2022/11/08 07:44:09;;;;;;;18.58;9.40;;;;;;;;;;5065673;28;20055;-76
2022/11/08 07:46:35;;;;;;;25.20;10.23;;;;;;;;;;5068144;28;20043;-76
2022/11/08 07:49:01;;;;;;;20.27;9.55;;;;;;;;;;5061392;28;20025;-77
2022/11/08 07:51:27;;;;;;;20.73;9.60;;;;;;;;;;5065686;28;20489;-76
2022/11/08 07:53:53;;;;;;;23.17;10.20;;;;;;;;;;5060507;28;20036;-77
2022/11/08 07:56:19;;;;;;;24.27;11.25;;;;;;;;;;5060369;28;20039;-77
2022/11/08 07:58:45;;;;;;;17.15;9.45;;;;;;;;;;5069704;28;20027;-76
2022/11/08 08:01:11;;;;;;;22.17;9.57;;;;;;;;;;5065195;28;20544;-77
2022/11/08 08:03:37;;;;;;;19.33;8.45;;;;;;;;;;5064586;28;20062;-76
2022/11/08 08:06:03;;;;;;;21.08;8.07;;;;;;;;;;5062330;28;20083;-77
2022/11/08 08:08:29;;;;;;;23.05;8.50;;;;;;;;;;5074220;28;20123;-77
2022/11/08 08:10:56;;;;;;;28.45;9.02;;;;;;;;;;5064599;28;20039;-77
2022/11/08 08:13:22;;;;;;;18.17;9.05;;;;;;;;;;5068182;28;20031;-76
2022/11/08 08:15:48;;;;;;;26.40;11.35;;;;;;;;;;5067190;28;20040;-76
2022/11/08 08:18:16;;;;;;;18.25;7.32;;;;;;;;;;5064979;28;20582;-77
2022/11/08 08:20:42;;;;;;;18.20;7.80;;;;;;;;;;5059987;28;20025;-77
2022/11/08 08:23:08;;;;;;;20.88;7.68;;;;;;;;;;5063850;28;20086;-77
2022/11/08 08:25:34;;;;;;;20.45;7.22;;;;;;;;;;5064791;28;20041;-77
2022/11/08 08:28:00;;;;;;;15.65;6.15;;;;;;;;;;5064172;28;20045;-77
2022/11/08 08:30:27;;;;;;;17.80;7.68;;;;;;;;;;5060243;28;20734;-77
2022/11/08 08:33:00;;;;;;;15.77;6.25;;;;;;;;;;5052726;28;20032;-76
2022/11/08 08:35:26;;;;;;;14.55;5.30;;;;;;;;;;5060926;28;20098;-77
2022/11/08 08:37:52;;;;;;;13.77;5.53;;;;;;;;;;5059582;28;20028;-76
2022/11/08 08:40:18;;;;;;;12.38;5.68;;;;;;;;;;5065218;28;20123;-76
2022/11/08 08:42:44;;;;;;;14.27;5.75;;;;;;;;;;5055519;28;20032;-77
2022/11/08 08:45:10;;;;;;;15.85;5.53;;;;;;;;;;5066696;28;20090;-75
2022/11/08 08:47:36;;;;;;;16.58;5.60;;;;;;;;;;5050402;28;20064;-76
2022/11/08 08:50:02;;;;;;;11.95;4.78;;;;;;;;;;5068536;28;20042;-76
2022/11/08 08:52:28;;;;;;;14.30;5.70;;;;;;;;;;5059778;28;20064;-77
2022/11/08 08:54:54;;;;;;;13.85;5.55;;;;;;;;;;5064441;28;20086;-76
2022/11/08 08:57:20;;;;;;;19.13;6.80;;;;;;;;;;5083895;28;20035;-76
2022/11/08 08:59:46;;;;;;;12.57;5.95;;;;;;;;;;5070337;28;20516;-77
2022/11/08 09:02:13;;;;;;;17.58;6.35;;;;;;;;;;5065046;28;20024;-77
2022/11/08 09:04:39;;;;;;;16.15;6.63;;;;;;;;;;5058229;28;20041;-76
2022/11/08 09:07:05;;;;;;;17.70;6.90;;;;;;;;;;5063969;28;20071;-76
2022/11/08 09:09:32;;;;;;;32.08;8.88;;;;;;;;;;5071624;28;20038;-77
2022/11/08 09:11:59;;;;;;;17.38;7.10;;;;;;;;;;5081282;28;20036;-77
2022/11/08 09:14:25;;;;;;;19.70;7.05;;;;;;;;;;5084780;28;20032;-76
2022/11/08 09:16:51;;;;;;;16.63;5.72;;;;;;;;;;5059186;28;20032;-77
2022/11/08 09:19:17;;;;;;;16.02;5.13;;;;;;;;;;5079057;28;20030;-77
2022/11/08 09:21:43;;;;;;;13.20;5.25;;;;;;;;;;5082473;28;20060;-76
2022/11/08 09:24:09;;;;;;;21.83;7.28;;;;;;;;;;5086191;28;20064;-76
2022/11/08 09:26:35;;;;;;;19.83;6.25;;;;;;;;;;5081294;28;20032;-76
2022/11/08 09:29:01;;;;;;;26.02;9.02;;;;;;;;;;5082498;28;20424;-76
2022/11/08 09:31:27;;;;;;;17.23;7.78;;;;;;;;;;5085485;28;20064;-77
2022/11/08 09:33:53;;;;;;;11.60;5.85;;;;;;;;;;5067448;28;20504;-76
2022/11/08 09:36:19;;;;;;;14.30;5.72;;;;;;;;;;5070217;28;20028;-77
2022/11/08 09:38:45;;;;;;;15.43;4.38;;;;;;;;;;5087946;28;20455;-77
2022/11/08 09:41:17;;;;;;;13.18;4.45;;;;;;;;;;5083704;28;20115;-76
2022/11/08 09:44:03;;;;;;;12.43;4.35;;;;;;;;;;5069540;28;20028;-76
2022/11/08 09:46:38;;;;;;;13.32;3.80;;;;;;;;;;5044764;28;20503;-77
2022/11/08 09:49:06;;;;;;;16.05;4.43;;;;;;;;;;5082329;28;20032;-77
2022/11/08 09:51:33;;;;;;;12.90;3.85;;;;;;;;;;5071912;28;20032;-77
2022/11/08 09:54:00;;;;;;;13.02;3.85;;;;;;;;;;5088577;28;20033;-77
2022/11/08 09:56:37;;;;;;;12.93;4.53;;;;;;;;;;5065291;28;20793;-77
2022/11/08 09:59:09;;;;;;;23.05;11.40;;;;;;;;;;5088139;28;20036;-76
2022/11/08 10:01:35;;;;;;;;;;;;;;;;;;5087235;28;20035;-76
2022/11/08 10:04:03;;;;;;;8.45;3.20;;;;;;;;;;5070339;28;19912;-77
2022/11/08 10:06:52;;;;;;;12.75;3.97;;;;;;;;;;5088877;28;20044;-76
2022/11/08 10:09:21;;;;;;;14.93;2.70;;;;;;;;;;5068442;28;20031;-77
2022/11/08 10:11:59;;;;;;;8.90;1.98;;;;;;;;;;5081884;28;20236;-76
2022/11/08 10:14:25;;;;;;;6.88;2.15;;;;;;;;;;5090070;28;20039;-77
2022/11/08 10:16:58;;;;;;;7.38;2.15;;;;;;;;;;5063857;28;20596;-76
2022/11/08 10:19:23;;;;;;;;;;;;;;;;;;5088330;28;20047;-76
2022/11/08 10:21:55;;;;;;;15.55;6.90;;;;;;;;;;5088684;28;19967;-76
2022/11/08 10:24:36;;;;;;;12.32;5.47;;;;;;;;;;5081327;28;20037;-76
2022/11/08 10:27:03;;;;;;;12.93;5.47;;;;;;;;;;5061207;28;20062;-76
2022/11/08 10:29:38;;;;;;;10.45;4.05;;;;;;;;;;5085788;28;20036;-76
2022/11/08 10:32:22;;;;;;;9.98;4.45;;;;;;;;;;5082609;28;20024;-76
2022/11/08 10:34:55;;;;;;;12.38;5.57;;;;;;;;;;5070238;28;20034;-76
2022/11/08 10:37:23;;;;;;;9.25;4.00;;;;;;;;;;5080539;28;20039;-76
2022/11/08 10:39:57;;;;;;;14.10;4.80;;;;;;;;;;5085553;28;20102;-76
2022/11/08 10:42:32;;;;;;;11.48;4.13;;;;;;;;;;5087252;28;20032;-76
2022/11/08 10:44:58;;;;;;;9.73;4.40;;;;;;;;;;5079712;28;20105;-76
2022/11/08 10:47:26;;;;;;;10.23;3.78;;;;;;;;;;5085258;28;20111;-76
2022/11/08 10:49:53;;;;;;;10.93;3.58;;;;;;;;;;5090149;28;20988;-76
2022/11/08 10:52:24;;;;;;;14.38;3.63;;;;;;;;;;5086186;28;20139;-76
2022/11/08 10:54:52;;;;;;;9.40;3.67;;;;;;;;;;5076052;28;20032;-76
2022/11/08 10:57:23;;;;;;;13.10;3.65;;;;;;;;;;5080053;28;20025;-77
2022/11/08 10:59:49;;;;;;;12.00;4.13;;;;;;;;;;5060349;28;20029;-76
2022/11/08 11:02:17;;;;;;;11.70;4.53;;;;;;;;;;5082207;28;20048;-76
2022/11/08 11:04:43;;;;;;;10.27;3.90;;;;;;;;;;5057552;28;20043;-76
2022/11/08 11:07:30;;;;;;;8.30;3.63;;;;;;;;;;5070166;28;20087;-77
2022/11/08 11:09:56;;;;;;;11.82;3.58;;;;;;;;;;5062670;28;20032;-77
2022/11/08 11:12:22;;;;;;;8.43;3.25;;;;;;;;;;5083840;28;20089;-76
2022/11/08 11:14:57;;;;;;;6.28;2.72;;;;;;;;;;5078820;28;20068;-77
2022/11/08 11:17:26;;;;;;;7.35;2.97;;;;;;;;;;5082474;28;20040;-76
2022/11/08 11:19:56;;;;;;;5.15;2.08;;;;;;;;;;5084098;28;20499;-77
2022/11/08 11:22:29;;;;;;;7.05;2.42;;;;;;;;;;5081053;28;20043;-76
2022/11/08 11:24:56;;;;;;;6.13;2.42;;;;;;;;;;5082155;28;20032;-76
2022/11/08 11:27:30;;;;;;;7.35;1.95;;;;;;;;;;5066686;28;20036;-77
2022/11/08 11:30:23;;;;;;;7.30;2.22;;;;;;;;;;5063798;28;20032;-76
2022/11/08 11:32:58;;;;;;;3.80;1.77;;;;;;;;;;5079140;28;20136;-77
2022/11/08 11:35:37;;;;;;;7.00;2.97;;;;;;;;;;5057379;28;20064;-76
2022/11/08 11:38:06;;;;;;;5.97;1.58;;;;;;;;;;5063390;28;20622;-76
2022/11/08 11:40:34;;;;;;;4.10;1.73;;;;;;;;;;5064889;28;20024;-76
2022/11/08 11:43:19;;;;;;;8.10;3.22;;;;;;;;;;5082189;28;20071;-77
2022/11/08 11:45:48;;;;;;;4.20;1.10;;;;;;;;;;5077508;28;20065;-76
2022/11/08 11:48:14;;;;;;;2.80;1.00;;;;;;;;;;5081853;28;20043;-77
2022/11/08 11:50:44;;;;;;;4.43;1.23;;;;;;;;;;5082878;28;20039;-77
2022/11/08 11:53:13;;;;;;;5.18;1.33;;;;;;;;;;5086027;28;20048;-77
2022/11/08 11:55:46;;;;;;;5.35;1.30;;;;;;;;;;5082932;28;20027;-77
2022/11/08 11:58:18;;;;;;;5.20;1.48;;;;;;;;;;5070327;28;20039;-77
2022/11/08 12:00:44;;;;;;;;;;;;;;;;;;5083940;28;20089;-77
2022/11/08 12:03:10;;;;;;;3.40;1.05;;;;;;;;;;5068029;28;20495;-77
2022/11/08 12:05:39;;;;;;;4.65;1.27;;;;;;;;;;5060418;28;20064;-76
2022/11/08 12:08:24;;;;;;;7.85;1.20;;;;;;;;;;5061390;28;20036;-77
2022/11/08 12:11:05;;;;;;;4.72;1.02;;;;;;;;;;5062109;28;20038;-77
2022/11/08 12:13:34;;;;;;;4.90;1.20;;;;;;;;;;5068547;28;20051;-77
2022/11/08 12:16:10;;;;;;;3.90;0.90;;;;;;;;;;5063985;28;20040;-76
2022/11/08 12:18:45;;;;;;;4.50;0.80;;;;;;;;;;5056632;28;20051;-76
2022/11/08 12:21:14;;;;;;;3.53;1.00;;;;;;;;;;5057457;28;20048;-77
2022/11/08 12:23:46;;;;;;;3.65;1.20;;;;;;;;;;5063993;28;20020;-77
2022/11/08 12:26:12;;;;;;;3.88;1.00;;;;;;;;;;5057739;28;20029;-76
2022/11/08 12:28:49;;;;;;;7.43;0.90;;;;;;;;;;5062713;28;20505;-77
2022/11/08 12:31:26;;;;;;;2.47;0.75;;;;;;;;;;5062903;28;20059;-77
2022/11/08 12:33:58;;;;;;;2.05;0.52;;;;;;;;;;5063301;28;20017;-77
2022/11/08 12:36:24;;;;;;;2.05;0.40;;;;;;;;;;5066095;28;20128;-77
2022/11/08 12:38:50;;;;;;;3.58;0.52;;;;;;;;;;5062732;28;20111;-76
2022/11/08 12:41:22;;;;;;;2.95;0.60;;;;;;;;;;5062048;28;20045;-76
2022/11/08 12:44:00;;;;;;;3.85;0.80;;;;;;;;;;5057167;28;20086;-77
2022/11/08 12:46:31;;;;;;;7.47;1.25;;;;;;;;;;5056301;28;20044;-76
2022/11/08 12:49:12;;;;;;;3.30;1.10;;;;;;;;;;5064612;28;20123;-76
2022/11/08 12:51:53;;;;;;;1.98;0.68;;;;;;;;;;5063861;28;20032;-77
2022/11/08 12:54:35;;;;;;;4.97;0.90;;;;;;;;;;5060995;28;20049;-76
2022/11/08 12:57:05;;;;;;;6.43;0.80;;;;;;;;;;5055176;28;20037;-73
2022/11/08 12:59:33;;;;;;;4.10;0.80;;;;;;;;;;5055788;28;20032;-77
2022/11/08 13:02:01;;;;;;;5.43;0.88;;;;;;;;;;5062861;28;20072;-77
2022/11/08 13:04:31;;;;;;;5.88;0.90;;;;;;;;;;5063006;28;20032;-76
2022/11/08 13:06:57;;;;;;;6.10;1.77;;;;;;;;;;5081802;28;20091;-76
2022/11/08 13:09:23;;;;;;;5.72;0.90;;;;;;;;;;5061865;28;20480;-76
2022/11/08 13:12:06;;;;;;;2.80;0.70;;;;;;;;;;5079608;28;20036;-76
2022/11/08 13:14:32;;;;;;;1.80;0.70;;;;;;;;;;5076569;28;20025;-77
2022/11/08 13:17:19;;;;;;;2.60;0.80;;;;;;;;;;5069220;28;20572;-77
2022/11/08 13:19:48;;;;;;;3.08;0.70;;;;;;;;;;5063555;28;20388;-76
2022/11/08 13:22:32;;;;;;;1.88;0.70;;;;;;;;;;5056157;28;20033;-76
2022/11/08 13:24:58;;;;;;;3.10;0.57;;;;;;;;;;5069786;28;20907;-77
2022/11/08 13:27:41;;;;;;;3.63;0.93;;;;;;;;;;5063252;28;20036;-77
2022/11/08 13:30:16;;;;;;;2.33;0.60;;;;;;;;;;5083771;28;20032;-76
2022/11/08 13:32:42;;;;;;;3.40;0.50;;;;;;;;;;5087339;28;20032;-77
2022/11/08 13:35:25;;;;;;;1.92;0.52;;;;;;;;;;5070558;28;20769;-76
2022/11/08 13:38:03;;;;;;;2.42;0.70;;;;;;;;;;5063946;28;20152;-76
2022/11/08 13:40:39;;;;;;;4.70;0.80;;;;;;;;;;5057509;28;20042;-77
2022/11/08 13:43:25;;;;;;;4.95;1.05;;;;;;;;;;5079965;28;20028;-76
2022/11/08 13:45:51;;;;;;;3.95;0.90;;;;;;;;;;5061236;28;20068;-77
2022/11/08 13:48:24;;;;;;;7.40;1.10;;;;;;;;;;5069403;28;20404;-76
2022/11/08 13:50:50;;;;;;;11.68;2.47;;;;;;;;;;5087550;28;20052;-76
2022/11/08 13:53:19;;;;;;;9.75;2.13;;;;;;;;;;5087361;28;20031;-76
2022/11/08 13:55:45;;;;;;;6.97;1.75;;;;;;;;;;5063473;28;20028;-76
2022/11/08 13:58:30;;;;;;;6.65;1.65;;;;;;;;;;5090261;28;20842;-76
2022/11/08 14:00:57;;;;;;;5.43;1.23;;;;;;;;;;5086178;28;20055;-76
2022/11/08 14:03:32;;;;;;;5.22;1.15;;;;;;;;;;5081482;28;20032;-77
2022/11/08 14:06:04;;;;;;;5.03;1.65;;;;;;;;;;5079138;28;20060;-77
2022/11/08 14:08:30;;;;;;;;;;;;;;;;;;5086525;28;20051;-77
2022/11/08 14:11:08;;;;;;;7.97;2.10;;;;;;;;;;5085410;28;19912;-77
2022/11/08 14:13:43;;;;;;;5.03;1.75;;;;;;;;;;5066689;28;20047;-76
2022/11/08 14:16:18;;;;;;;4.47;1.20;;;;;;;;;;5067914;28;20148;-77
2022/11/08 14:18:45;;;;;;;3.17;0.88;;;;;;;;;;5060585;28;20495;-77
2022/11/08 14:21:16;;;;;;;3.50;0.90;;;;;;;;;;5067427;28;20040;-77
2022/11/08 14:23:42;;;;;;;6.88;1.00;;;;;;;;;;5071166;28;20752;-76
2022/11/08 14:26:21;;;;;;;5.45;1.00;;;;;;;;;;5066801;28;20048;-76
2022/11/08 14:28:48;;;;;;;8.13;1.45;;;;;;;;;;5065564;28;20039;-77
2022/11/08 14:31:23;;;;;;;5.80;1.20;;;;;;;;;;5085753;28;20060;-77
2022/11/08 14:33:49;;;;;;;8.90;1.75;;;;;;;;;;5071628;28;20053;-76
2022/11/08 14:36:16;;;;;;;8.82;1.40;;;;;;;;;;5071018;28;20036;-76
2022/11/08 14:38:50;;;;;;;5.80;1.75;;;;;;;;;;5065411;28;20124;-77
2022/11/08 14:41:21;;;;;;;7.05;1.73;;;;;;;;;;5083291;28;20386;-77
2022/11/08 14:43:47;;;;;;;7.35;1.88;;;;;;;;;;5077676;28;20060;-76
2022/11/08 14:46:15;;;;;;;6.32;0.95;;;;;;;;;;5081085;28;20041;-77
2022/11/08 14:48:48;;;;;;;4.18;0.90;;;;;;;;;;5084173;28;20024;-76
2022/11/08 14:51:14;;;;;;;4.32;1.40;;;;;;;;;;5069538;28;20126;-77
2022/11/08 14:53:48;;;;;;;8.55;2.50;;;;;;;;;;5083939;28;20099;-76
2022/11/08 14:56:17;;;;;;;9.48;2.10;;;;;;;;;;5083238;28;20824;-77
2022/11/08 14:58:43;;;;;;;10.02;2.08;;;;;;;;;;5088675;28;20020;-76
2022/11/08 15:01:10;;;;;;;8.23;1.88;;;;;;;;;;5062517;28;20036;-76
2022/11/08 15:03:37;;;;;;;17.90;5.70;;;;;;;;;;5063624;28;20480;-77